sensor_id;sensor_type;location;lat;lon;timestamp;temperature;humidity
6822;DHT22;3449;48.728;8.968;2023-05-18T00:00:22;4.70;99.90
6822;DHT22;3449;48.728;8.968;2023-05-18T00:02:49;4.70;99.90
6822;DHT22;3449;48.728;8.968;2023-05-18T00:05:16;4.70;99.90
6822;DHT22;3449;48.728;8.968;2023-05-18T00:07:45;4.70;99.90
6822;DHT22;3449;48.728;8.968;2023-05-18T00:10:12;4.80;99.90
6822;DHT22;3449;48.728;8.968;2023-05-18T00:12:38;4.80;99.90
6822;DHT22;3449;48.728;8.968;2023-05-18T00:15:06;4.80;99.90
6822;DHT22;3449;48.728;8.968;2023-05-18T00:17:34;4.80;99.90
6822;DHT22;3449;48.728;8.968;2023-05-18T00:20:01;4.90;99.90
6822;DHT22;3449;48.728;8.968;2023-05-18T00:22:29;4.90;99.90
6822;DHT22;3449;48.728;8.968;2023-05-18T00:24:58;4.90;99.90
6822;DHT22;3449;48.728;8.968;2023-05-18T00:27:25;4.90;99.90
6822;DHT22;3449;48.728;8.968;2023-05-18T00:29:51;4.90;99.90
6822;DHT22;3449;48.728;8.968;2023-05-18T00:32:18;5.10;99.90
6822;DHT22;3449;48.728;8.968;2023-05-18T00:34:45;5.00;99.90
6822;DHT22;3449;48.728;8.968;2023-05-18T00:37:12;4.90;99.90
6822;DHT22;3449;48.728;8.968;2023-05-18T00:39:39;4.90;99.90
6822;DHT22;3449;48.728;8.968;2023-05-18T00:42:07;4.80;99.90
6822;DHT22;3449;48.728;8.968;2023-05-18T00:44:34;4.70;99.90
6822;DHT22;3449;48.728;8.968;2023-05-18T00:47:01;4.70;99.90
6822;DHT22;3449;48.728;8.968;2023-05-18T00:49:28;4.70;99.90
6822;DHT22;3449;48.728;8.968;2023-05-18T00:51:55;4.60;99.90
6822;DHT22;3449;48.728;8.968;2023-05-18T00:54:22;4.60;99.90
6822;DHT22;3449;48.728;8.968;2023-05-18T00:56:50;4.60;99.90
6822;DHT22;3449;48.728;8.968;2023-05-18T00:59:19;4.50;99.90
6822;DHT22;3449;48.728;8.968;2023-05-18T01:01:46;4.50;99.90
6822;DHT22;3449;48.728;8.968;2023-05-18T01:04:13;4.50;99.90
6822;DHT22;3449;48.728;8.968;2023-05-18T01:06:40;4.50;99.90
6822;DHT22;3449;48.728;8.968;2023-05-18T01:09:08;4.50;99.90
6822;DHT22;3449;48.728;8.968;2023-05-18T01:11:47;4.50;99.90
6822;DHT22;3449;48.728;8.968;2023-05-18T01:14:24;4.50;99.90
6822;DHT22;3449;48.728;8.968;2023-05-18T01:16:59;4.50;99.90
6822;DHT22;3449;48.728;8.968;2023-05-18T01:19:52;4.50;99.90
6822;DHT22;3449;48.728;8.968;2023-05-18T01:22:36;4.50;99.90
6822;DHT22;3449;48.728;8.968;2023-05-18T01:25:09;4.50;99.90
6822;DHT22;3449;48.728;8.968;2023-05-18T01:27:41;4.50;99.90
6822;DHT22;3449;48.728;8.968;2023-05-18T01:30:12;4.40;99.90
6822;DHT22;3449;48.728;8.968;2023-05-18T01:32:39;4.40;99.90
6822;DHT22;3449;48.728;8.968;2023-05-18T01:35:08;4.40;99.90
6822;DHT22;3449;48.728;8.968;2023-05-18T01:37:34;4.30;99.90
6822;DHT22;3449;48.728;8.968;2023-05-18T01:40:02;4.30;99.90
6822;DHT22;3449;48.728;8.968;2023-05-18T01:42:31;4.30;99.90
6822;DHT22;3449;48.728;8.968;2023-05-18T01:45:02;4.20;99.90
6822;DHT22;3449;48.728;8.968;2023-05-18T01:47:29;4.20;99.90
6822;DHT22;3449;48.728;8.968;2023-05-18T01:50:01;4.20;99.90
6822;DHT22;3449;48.728;8.968;2023-05-18T01:52:32;4.10;99.90
6822;DHT22;3449;48.728;8.968;2023-05-18T01:55:03;4.10;99.90
6822;DHT22;3449;48.728;8.968;2023-05-18T01:57:31;4.10;99.90
6822;DHT22;3449;48.728;8.968;2023-05-18T02:00:00;3.90;99.90
6822;DHT22;3449;48.728;8.968;2023-05-18T02:02:32;3.90;99.90
6822;DHT22;3449;48.728;8.968;2023-05-18T02:04:59;3.90;99.90
6822;DHT22;3449;48.728;8.968;2023-05-18T02:07:26;3.90;99.90
6822;DHT22;3449;48.728;8.968;2023-05-18T02:09:53;4.00;99.90
6822;DHT22;3449;48.728;8.968;2023-05-18T02:12:20;4.00;99.90
6822;DHT22;3449;48.728;8.968;2023-05-18T02:14:47;4.00;99.90
6822;DHT22;3449;48.728;8.968;2023-05-18T02:17:15;4.00;99.90
6822;DHT22;3449;48.728;8.968;2023-05-18T02:19:42;4.00;99.90
6822;DHT22;3449;48.728;8.968;2023-05-18T02:22:09;4.00;99.90
6822;DHT22;3449;48.728;8.968;2023-05-18T02:24:36;4.00;99.90
6822;DHT22;3449;48.728;8.968;2023-05-18T02:27:04;4.00;99.90
6822;DHT22;3449;48.728;8.968;2023-05-18T02:29:31;3.90;99.90
6822;DHT22;3449;48.728;8.968;2023-05-18T02:31:58;3.90;99.90
6822;DHT22;3449;48.728;8.968;2023-05-18T02:34:26;3.80;99.90
6822;DHT22;3449;48.728;8.968;2023-05-18T02:36:56;3.80;99.90
6822;DHT22;3449;48.728;8.968;2023-05-18T02:39:28;3.80;99.90
6822;DHT22;3449;48.728;8.968;2023-05-18T02:41:55;3.80;99.90
6822;DHT22;3449;48.728;8.968;2023-05-18T02:44:22;3.80;99.90
6822;DHT22;3449;48.728;8.968;2023-05-18T02:46:48;3.80;99.90
6822;DHT22;3449;48.728;8.968;2023-05-18T02:49:15;3.80;99.90
6822;DHT22;3449;48.728;8.968;2023-05-18T02:51:44;3.70;99.90
6822;DHT22;3449;48.728;8.968;2023-05-18T02:54:10;3.80;99.90
6822;DHT22;3449;48.728;8.968;2023-05-18T02:56:37;3.80;99.90
6822;DHT22;3449;48.728;8.968;2023-05-18T02:59:06;3.80;99.90
6822;DHT22;3449;48.728;8.968;2023-05-18T03:01:33;3.70;99.90
6822;DHT22;3449;48.728;8.968;2023-05-18T03:04:02;3.70;99.90
6822;DHT22;3449;48.728;8.968;2023-05-18T03:06:28;3.80;99.90
6822;DHT22;3449;48.728;8.968;2023-05-18T03:08:57;3.70;99.90
6822;DHT22;3449;48.728;8.968;2023-05-18T03:11:24;3.70;99.90
6822;DHT22;3449;48.728;8.968;2023-05-18T03:13:51;3.70;99.90
6822;DHT22;3449;48.728;8.968;2023-05-18T03:16:19;3.70;99.90
6822;DHT22;3449;48.728;8.968;2023-05-18T03:18:46;3.70;99.90
6822;DHT22;3449;48.728;8.968;2023-05-18T03:21:13;3.70;99.90
6822;DHT22;3449;48.728;8.968;2023-05-18T03:23:41;3.60;99.90
6822;DHT22;3449;48.728;8.968;2023-05-18T03:26:09;3.60;99.90
6822;DHT22;3449;48.728;8.968;2023-05-18T03:28:37;3.60;99.90
6822;DHT22;3449;48.728;8.968;2023-05-18T03:31:04;3.50;99.90
6822;DHT22;3449;48.728;8.968;2023-05-18T03:33:30;3.50;99.90
6822;DHT22;3449;48.728;8.968;2023-05-18T03:36:01;3.40;99.90
6822;DHT22;3449;48.728;8.968;2023-05-18T03:38:28;3.40;99.90
6822;DHT22;3449;48.728;8.968;2023-05-18T03:40:55;3.50;99.90
6822;DHT22;3449;48.728;8.968;2023-05-18T03:43:23;3.50;99.90
6822;DHT22;3449;48.728;8.968;2023-05-18T03:45:50;3.50;99.90
6822;DHT22;3449;48.728;8.968;2023-05-18T03:48:17;3.60;99.90
6822;DHT22;3449;48.728;8.968;2023-05-18T03:50:44;3.60;99.90
6822;DHT22;3449;48.728;8.968;2023-05-18T03:53:11;3.60;99.90
6822;DHT22;3449;48.728;8.968;2023-05-18T03:55:38;3.50;99.90
6822;DHT22;3449;48.728;8.968;2023-05-18T03:58:06;3.50;99.90
6822;DHT22;3449;48.728;8.968;2023-05-18T04:00:34;3.50;99.90
6822;DHT22;3449;48.728;8.968;2023-05-18T04:03:01;3.50;99.90
6822;DHT22;3449;48.728;8.968;2023-05-18T04:05:29;3.50;99.90
6822;DHT22;3449;48.728;8.968;2023-05-18T04:07:56;3.50;99.90
6822;DHT22;3449;48.728;8.968;2023-05-18T04:10:22;3.50;99.90
6822;DHT22;3449;48.728;8.968;2023-05-18T04:12:50;3.50;99.90
6822;DHT22;3449;48.728;8.968;2023-05-18T04:15:17;3.50;99.90
6822;DHT22;3449;48.728;8.968;2023-05-18T04:17:47;3.50;99.90
6822;DHT22;3449;48.728;8.968;2023-05-18T04:20:14;3.50;99.90
6822;DHT22;3449;48.728;8.968;2023-05-18T04:22:43;3.50;99.90
6822;DHT22;3449;48.728;8.968;2023-05-18T04:25:10;3.50;99.90
6822;DHT22;3449;48.728;8.968;2023-05-18T04:27:38;3.50;99.90
6822;DHT22;3449;48.728;8.968;2023-05-18T04:30:07;3.50;99.90
6822;DHT22;3449;48.728;8.968;2023-05-18T04:32:35;3.50;99.90
6822;DHT22;3449;48.728;8.968;2023-05-18T04:35:04;3.60;99.90
6822;DHT22;3449;48.728;8.968;2023-05-18T04:37:32;3.60;99.90
6822;DHT22;3449;48.728;8.968;2023-05-18T04:39:59;3.60;99.90
6822;DHT22;3449;48.728;8.968;2023-05-18T04:42:33;3.70;99.90
6822;DHT22;3449;48.728;8.968;2023-05-18T04:45:00;3.80;99.90
6822;DHT22;3449;48.728;8.968;2023-05-18T04:47:27;3.80;99.90
6822;DHT22;3449;48.728;8.968;2023-05-18T04:49:54;3.90;99.90
6822;DHT22;3449;48.728;8.968;2023-05-18T04:52:23;4.00;99.90
6822;DHT22;3449;48.728;8.968;2023-05-18T04:54:50;4.10;99.90
6822;DHT22;3449;48.728;8.968;2023-05-18T04:57:17;4.30;99.90
6822;DHT22;3449;48.728;8.968;2023-05-18T04:59:44;4.20;99.90
6822;DHT22;3449;48.728;8.968;2023-05-18T05:02:12;4.30;99.90
6822;DHT22;3449;48.728;8.968;2023-05-18T05:04:39;4.40;99.90
6822;DHT22;3449;48.728;8.968;2023-05-18T05:07:06;4.40;99.90
6822;DHT22;3449;48.728;8.968;2023-05-18T05:09:34;4.50;99.90
6822;DHT22;3449;48.728;8.968;2023-05-18T05:12:01;4.60;99.90
6822;DHT22;3449;48.728;8.968;2023-05-18T05:14:28;4.70;99.90
6822;DHT22;3449;48.728;8.968;2023-05-18T05:16:55;4.80;99.90
6822;DHT22;3449;48.728;8.968;2023-05-18T05:19:22;4.90;99.90
6822;DHT22;3449;48.728;8.968;2023-05-18T05:21:49;5.10;99.90
6822;DHT22;3449;48.728;8.968;2023-05-18T05:24:15;5.20;99.90
6822;DHT22;3449;48.728;8.968;2023-05-18T05:26:44;5.40;99.90
6822;DHT22;3449;48.728;8.968;2023-05-18T05:29:10;5.50;99.90
6822;DHT22;3449;48.728;8.968;2023-05-18T05:31:37;5.70;99.90
6822;DHT22;3449;48.728;8.968;2023-05-18T05:34:05;5.80;99.90
6822;DHT22;3449;48.728;8.968;2023-05-18T05:36:32;5.90;99.90
6822;DHT22;3449;48.728;8.968;2023-05-18T05:38:59;6.00;99.90
6822;DHT22;3449;48.728;8.968;2023-05-18T05:41:26;6.20;99.90
6822;DHT22;3449;48.728;8.968;2023-05-18T05:43:54;6.30;99.90
6822;DHT22;3449;48.728;8.968;2023-05-18T05:46:21;6.50;99.90
6822;DHT22;3449;48.728;8.968;2023-05-18T05:48:48;6.60;99.90
6822;DHT22;3449;48.728;8.968;2023-05-18T05:51:15;6.70;99.90
6822;DHT22;3449;48.728;8.968;2023-05-18T05:53:42;6.80;99.90
6822;DHT22;3449;48.728;8.968;2023-05-18T05:56:12;6.90;99.90
6822;DHT22;3449;48.728;8.968;2023-05-18T05:58:38;7.00;99.90
6822;DHT22;3449;48.728;8.968;2023-05-18T06:01:07;7.20;99.90
6822;DHT22;3449;48.728;8.968;2023-05-18T06:03:34;7.30;99.90
6822;DHT22;3449;48.728;8.968;2023-05-18T06:06:01;7.40;99.90
6822;DHT22;3449;48.728;8.968;2023-05-18T06:08:28;7.60;99.90
6822;DHT22;3449;48.728;8.968;2023-05-18T06:10:55;7.70;99.90
6822;DHT22;3449;48.728;8.968;2023-05-18T06:13:22;7.90;99.90
6822;DHT22;3449;48.728;8.968;2023-05-18T06:15:49;8.00;99.90
6822;DHT22;3449;48.728;8.968;2023-05-18T06:18:17;8.10;99.90
6822;DHT22;3449;48.728;8.968;2023-05-18T06:20:44;8.10;99.90
6822;DHT22;3449;48.728;8.968;2023-05-18T06:23:11;8.20;99.90
6822;DHT22;3449;48.728;8.968;2023-05-18T06:25:38;8.40;99.90
6822;DHT22;3449;48.728;8.968;2023-05-18T06:28:05;8.50;99.90
6822;DHT22;3449;48.728;8.968;2023-05-18T06:30:31;8.60;99.90
6822;DHT22;3449;48.728;8.968;2023-05-18T06:32:58;8.70;99.90
6822;DHT22;3449;48.728;8.968;2023-05-18T06:35:27;8.70;99.90
6822;DHT22;3449;48.728;8.968;2023-05-18T06:37:54;8.90;99.90
6822;DHT22;3449;48.728;8.968;2023-05-18T06:40:21;9.00;99.90
6822;DHT22;3449;48.728;8.968;2023-05-18T06:42:47;9.10;99.90
6822;DHT22;3449;48.728;8.968;2023-05-18T06:45:14;9.30;99.90
6822;DHT22;3449;48.728;8.968;2023-05-18T06:47:41;9.40;99.90
6822;DHT22;3449;48.728;8.968;2023-05-18T06:50:08;9.40;99.90
6822;DHT22;3449;48.728;8.968;2023-05-18T06:52:37;9.40;99.90
6822;DHT22;3449;48.728;8.968;2023-05-18T06:55:04;9.60;99.90
6822;DHT22;3449;48.728;8.968;2023-05-18T06:57:32;9.70;99.90
6822;DHT22;3449;48.728;8.968;2023-05-18T06:59:59;9.70;99.90
6822;DHT22;3449;48.728;8.968;2023-05-18T07:02:26;9.90;99.90
6822;DHT22;3449;48.728;8.968;2023-05-18T07:04:53;9.90;99.90
6822;DHT22;3449;48.728;8.968;2023-05-18T07:07:20;10.00;99.90
6822;DHT22;3449;48.728;8.968;2023-05-18T07:09:48;10.20;99.90
6822;DHT22;3449;48.728;8.968;2023-05-18T07:12:15;10.30;99.90
6822;DHT22;3449;48.728;8.968;2023-05-18T07:14:42;10.50;99.90
6822;DHT22;3449;48.728;8.968;2023-05-18T07:17:09;10.60;99.90
6822;DHT22;3449;48.728;8.968;2023-05-18T07:19:35;10.70;99.90
6822;DHT22;3449;48.728;8.968;2023-05-18T07:22:03;10.80;99.90
6822;DHT22;3449;48.728;8.968;2023-05-18T07:24:29;11.00;99.90
6822;DHT22;3449;48.728;8.968;2023-05-18T07:26:58;11.20;99.90
6822;DHT22;3449;48.728;8.968;2023-05-18T07:29:25;11.40;99.90
6822;DHT22;3449;48.728;8.968;2023-05-18T07:31:51;11.50;99.90
6822;DHT22;3449;48.728;8.968;2023-05-18T07:34:18;11.60;99.90
6822;DHT22;3449;48.728;8.968;2023-05-18T07:36:45;11.70;99.90
6822;DHT22;3449;48.728;8.968;2023-05-18T07:39:12;11.70;99.90
6822;DHT22;3449;48.728;8.968;2023-05-18T07:41:44;11.80;99.90
6822;DHT22;3449;48.728;8.968;2023-05-18T07:44:13;11.70;99.90
6822;DHT22;3449;48.728;8.968;2023-05-18T07:46:40;11.70;99.90
6822;DHT22;3449;48.728;8.968;2023-05-18T07:49:07;11.70;99.90
6822;DHT22;3449;48.728;8.968;2023-05-18T07:51:33;11.90;99.90
6822;DHT22;3449;48.728;8.968;2023-05-18T07:54:00;12.00;99.90
6822;DHT22;3449;48.728;8.968;2023-05-18T07:56:27;12.10;99.90
6822;DHT22;3449;48.728;8.968;2023-05-18T07:58:54;12.30;99.90
6822;DHT22;3449;48.728;8.968;2023-05-18T08:01:23;12.50;99.90
6822;DHT22;3449;48.728;8.968;2023-05-18T08:03:52;12.50;99.90
6822;DHT22;3449;48.728;8.968;2023-05-18T08:06:19;12.70;99.90
6822;DHT22;3449;48.728;8.968;2023-05-18T08:08:46;12.60;99.90
6822;DHT22;3449;48.728;8.968;2023-05-18T08:11:13;12.60;99.90
6822;DHT22;3449;48.728;8.968;2023-05-18T08:13:40;12.70;99.90
6822;DHT22;3449;48.728;8.968;2023-05-18T08:16:07;12.50;99.90
6822;DHT22;3449;48.728;8.968;2023-05-18T08:18:36;12.70;99.90
6822;DHT22;3449;48.728;8.968;2023-05-18T08:21:03;13.00;99.90
6822;DHT22;3449;48.728;8.968;2023-05-18T08:23:32;13.00;99.90
6822;DHT22;3449;48.728;8.968;2023-05-18T08:25:59;13.10;99.90
6822;DHT22;3449;48.728;8.968;2023-05-18T08:28:28;13.30;99.90
6822;DHT22;3449;48.728;8.968;2023-05-18T08:30:55;13.40;99.90
6822;DHT22;3449;48.728;8.968;2023-05-18T08:33:21;13.30;99.90
6822;DHT22;3449;48.728;8.968;2023-05-18T08:35:50;13.30;99.90
6822;DHT22;3449;48.728;8.968;2023-05-18T08:38:17;13.40;99.90
6822;DHT22;3449;48.728;8.968;2023-05-18T08:40:49;13.40;99.90
6822;DHT22;3449;48.728;8.968;2023-05-18T08:43:20;13.60;99.90
6822;DHT22;3449;48.728;8.968;2023-05-18T08:46:01;13.70;99.90
6822;DHT22;3449;48.728;8.968;2023-05-18T08:48:30;14.00;99.90
6822;DHT22;3449;48.728;8.968;2023-05-18T08:51:01;14.20;99.90
6822;DHT22;3449;48.728;8.968;2023-05-18T08:53:29;14.50;99.90
6822;DHT22;3449;48.728;8.968;2023-05-18T08:55:59;14.50;99.90
6822;DHT22;3449;48.728;8.968;2023-05-18T08:58:31;14.30;99.90
6822;DHT22;3449;48.728;8.968;2023-05-18T09:01:00;14.20;99.90
6822;DHT22;3449;48.728;8.968;2023-05-18T09:03:28;14.20;99.90
6822;DHT22;3449;48.728;8.968;2023-05-18T09:05:57;14.10;99.90
6822;DHT22;3449;48.728;8.968;2023-05-18T09:08:27;14.30;99.90
6822;DHT22;3449;48.728;8.968;2023-05-18T09:10:56;14.60;99.90
6822;DHT22;3449;48.728;8.968;2023-05-18T09:13:23;14.70;99.90
6822;DHT22;3449;48.728;8.968;2023-05-18T09:15:51;15.00;99.90
6822;DHT22;3449;48.728;8.968;2023-05-18T09:18:18;15.10;99.90
6822;DHT22;3449;48.728;8.968;2023-05-18T09:20:46;15.00;99.90
6822;DHT22;3449;48.728;8.968;2023-05-18T09:23:14;15.20;99.90
6822;DHT22;3449;48.728;8.968;2023-05-18T09:25:44;14.90;99.90
6822;DHT22;3449;48.728;8.968;2023-05-18T09:28:24;15.00;99.90
6822;DHT22;3449;48.728;8.968;2023-05-18T09:30:51;14.80;99.90
6822;DHT22;3449;48.728;8.968;2023-05-18T09:33:19;14.70;99.90
6822;DHT22;3449;48.728;8.968;2023-05-18T09:35:49;14.90;99.90
6822;DHT22;3449;48.728;8.968;2023-05-18T09:38:16;14.90;99.90
6822;DHT22;3449;48.728;8.968;2023-05-18T09:40:48;15.10;99.90
6822;DHT22;3449;48.728;8.968;2023-05-18T09:43:16;14.80;99.90
6822;DHT22;3449;48.728;8.968;2023-05-18T09:45:45;15.00;99.90
6822;DHT22;3449;48.728;8.968;2023-05-18T09:48:13;15.40;99.90
6822;DHT22;3449;48.728;8.968;2023-05-18T09:50:42;15.90;99.90
6822;DHT22;3449;48.728;8.968;2023-05-18T09:53:10;15.80;99.90
6822;DHT22;3449;48.728;8.968;2023-05-18T09:55:39;15.90;99.90
6822;DHT22;3449;48.728;8.968;2023-05-18T09:58:11;15.70;99.90
6822;DHT22;3449;48.728;8.968;2023-05-18T10:00:40;15.50;99.90
6822;DHT22;3449;48.728;8.968;2023-05-18T10:03:17;15.80;99.90
6822;DHT22;3449;48.728;8.968;2023-05-18T10:05:45;16.20;99.90
6822;DHT22;3449;48.728;8.968;2023-05-18T10:08:12;16.50;99.90
6822;DHT22;3449;48.728;8.968;2023-05-18T10:10:42;16.60;99.90
6822;DHT22;3449;48.728;8.968;2023-05-18T10:13:13;16.60;99.90
6822;DHT22;3449;48.728;8.968;2023-05-18T10:15:47;16.20;99.90
6822;DHT22;3449;48.728;8.968;2023-05-18T10:18:19;16.60;99.90
6822;DHT22;3449;48.728;8.968;2023-05-18T10:20:48;17.00;99.90
6822;DHT22;3449;48.728;8.968;2023-05-18T10:23:16;16.90;99.90
6822;DHT22;3449;48.728;8.968;2023-05-18T10:25:45;17.00;99.90
6822;DHT22;3449;48.728;8.968;2023-05-18T10:28:18;16.80;99.90
6822;DHT22;3449;48.728;8.968;2023-05-18T10:30:51;16.60;99.90
6822;DHT22;3449;48.728;8.968;2023-05-18T10:33:19;17.10;99.90
6822;DHT22;3449;48.728;8.968;2023-05-18T10:35:48;17.00;99.90
6822;DHT22;3449;48.728;8.968;2023-05-18T10:38:18;17.20;99.90
6822;DHT22;3449;48.728;8.968;2023-05-18T10:40:47;17.10;99.90
6822;DHT22;3449;48.728;8.968;2023-05-18T10:43:18;17.70;99.90
6822;DHT22;3449;48.728;8.968;2023-05-18T10:45:47;17.70;99.90
6822;DHT22;3449;48.728;8.968;2023-05-18T10:48:14;17.50;99.90
6822;DHT22;3449;48.728;8.968;2023-05-18T10:50:42;17.60;99.90
6822;DHT22;3449;48.728;8.968;2023-05-18T10:53:11;17.60;99.90
6822;DHT22;3449;48.728;8.968;2023-05-18T10:55:38;17.60;99.90
6822;DHT22;3449;48.728;8.968;2023-05-18T10:58:08;17.50;99.90
6822;DHT22;3449;48.728;8.968;2023-05-18T11:00:41;17.50;99.90
6822;DHT22;3449;48.728;8.968;2023-05-18T11:03:10;17.50;99.90
6822;DHT22;3449;48.728;8.968;2023-05-18T11:05:39;17.30;99.90
6822;DHT22;3449;48.728;8.968;2023-05-18T11:08:06;17.10;99.90
6822;DHT22;3449;48.728;8.968;2023-05-18T11:10:34;17.10;99.90
6822;DHT22;3449;48.728;8.968;2023-05-18T11:13:02;17.50;99.90
6822;DHT22;3449;48.728;8.968;2023-05-18T11:16:05;17.80;99.90
6822;DHT22;3449;48.728;8.968;2023-05-18T11:18:40;18.30;99.90
6822;DHT22;3449;48.728;8.968;2023-05-18T11:24:29;17.70;99.90
6822;DHT22;3449;48.728;8.968;2023-05-18T11:26:58;17.90;99.90
6822;DHT22;3449;48.728;8.968;2023-05-18T11:29:30;18.40;99.90
6822;DHT22;3449;48.728;8.968;2023-05-18T11:31:59;18.40;99.90
6822;DHT22;3449;48.728;8.968;2023-05-18T11:34:50;18.20;99.90
6822;DHT22;3449;48.728;8.968;2023-05-18T11:37:47;17.80;99.90
6822;DHT22;3449;48.728;8.968;2023-05-18T11:40:44;17.80;99.90
6822;DHT22;3449;48.728;8.968;2023-05-18T11:43:19;18.20;99.90
6822;DHT22;3449;48.728;8.968;2023-05-18T11:45:53;18.40;99.90
6822;DHT22;3449;48.728;8.968;2023-05-18T11:48:23;18.50;99.90
6822;DHT22;3449;48.728;8.968;2023-05-18T11:50:52;18.60;99.90
6822;DHT22;3449;48.728;8.968;2023-05-18T11:53:21;18.60;99.90
6822;DHT22;3449;48.728;8.968;2023-05-18T11:55:51;18.30;99.90
6822;DHT22;3449;48.728;8.968;2023-05-18T11:58:18;18.90;99.90
6822;DHT22;3449;48.728;8.968;2023-05-18T12:00:45;19.00;99.90
6822;DHT22;3449;48.728;8.968;2023-05-18T12:03:13;19.20;99.90
6822;DHT22;3449;48.728;8.968;2023-05-18T12:05:42;19.10;99.90
6822;DHT22;3449;48.728;8.968;2023-05-18T12:08:15;19.20;99.90
6822;DHT22;3449;48.728;8.968;2023-05-18T12:10:44;19.00;99.90
6822;DHT22;3449;48.728;8.968;2023-05-18T12:13:11;18.90;99.90
6822;DHT22;3449;48.728;8.968;2023-05-18T12:15:39;18.80;99.90
6822;DHT22;3449;48.728;8.968;2023-05-18T12:18:06;18.60;99.90
6822;DHT22;3449;48.728;8.968;2023-05-18T12:20:33;18.40;99.90
6822;DHT22;3449;48.728;8.968;2023-05-18T12:23:02;18.60;99.90
6822;DHT22;3449;48.728;8.968;2023-05-18T12:25:29;19.10;99.90
6822;DHT22;3449;48.728;8.968;2023-05-18T12:27:56;19.70;99.90
6822;DHT22;3449;48.728;8.968;2023-05-18T12:30:24;19.30;99.90
6822;DHT22;3449;48.728;8.968;2023-05-18T12:32:59;18.90;99.90
6822;DHT22;3449;48.728;8.968;2023-05-18T12:35:28;18.80;99.90
6822;DHT22;3449;48.728;8.968;2023-05-18T12:37:56;19.00;99.90
6822;DHT22;3449;48.728;8.968;2023-05-18T12:40:26;19.10;99.90
6822;DHT22;3449;48.728;8.968;2023-05-18T12:42:55;19.30;99.90
6822;DHT22;3449;48.728;8.968;2023-05-18T12:45:25;19.50;99.90
6822;DHT22;3449;48.728;8.968;2023-05-18T12:47:52;19.10;99.90
6822;DHT22;3449;48.728;8.968;2023-05-18T12:50:20;18.90;99.90
6822;DHT22;3449;48.728;8.968;2023-05-18T12:52:47;18.20;99.90
6822;DHT22;3449;48.728;8.968;2023-05-18T12:55:16;18.20;99.90
6822;DHT22;3449;48.728;8.968;2023-05-18T12:57:57;18.90;99.90
6822;DHT22;3449;48.728;8.968;2023-05-18T13:00:25;19.10;99.90
6822;DHT22;3449;48.728;8.968;2023-05-18T13:02:52;19.20;99.90
6822;DHT22;3449;48.728;8.968;2023-05-18T13:05:22;18.90;99.90
6822;DHT22;3449;48.728;8.968;2023-05-18T13:07:49;18.60;99.90
6822;DHT22;3449;48.728;8.968;2023-05-18T13:10:18;18.70;99.90
6822;DHT22;3449;48.728;8.968;2023-05-18T13:12:47;18.70;99.90
6822;DHT22;3449;48.728;8.968;2023-05-18T13:15:16;18.80;99.90
6822;DHT22;3449;48.728;8.968;2023-05-18T13:17:56;18.70;99.90
6822;DHT22;3449;48.728;8.968;2023-05-18T13:20:29;18.60;99.90
6822;DHT22;3449;48.728;8.968;2023-05-18T13:22:57;19.00;99.90
6822;DHT22;3449;48.728;8.968;2023-05-18T13:25:25;18.80;99.90
6822;DHT22;3449;48.728;8.968;2023-05-18T13:27:53;19.10;99.90
6822;DHT22;3449;48.728;8.968;2023-05-18T13:30:20;19.60;99.90
6822;DHT22;3449;48.728;8.968;2023-05-18T13:32:48;19.60;99.90
6822;DHT22;3449;48.728;8.968;2023-05-18T13:35:15;19.50;99.90
6822;DHT22;3449;48.728;8.968;2023-05-18T13:37:46;19.10;99.90
6822;DHT22;3449;48.728;8.968;2023-05-18T13:40:14;18.70;99.90
6822;DHT22;3449;48.728;8.968;2023-05-18T13:42:44;18.20;99.90
6822;DHT22;3449;48.728;8.968;2023-05-18T13:45:13;18.00;99.90
6822;DHT22;3449;48.728;8.968;2023-05-18T13:47:40;17.90;99.90
6822;DHT22;3449;48.728;8.968;2023-05-18T13:50:08;17.70;99.90
6822;DHT22;3449;48.728;8.968;2023-05-18T13:52:36;17.60;99.90
6822;DHT22;3449;48.728;8.968;2023-05-18T13:55:05;17.60;99.90
6822;DHT22;3449;48.728;8.968;2023-05-18T13:57:32;17.90;99.90
6822;DHT22;3449;48.728;8.968;2023-05-18T13:59:59;18.60;99.90
6822;DHT22;3449;48.728;8.968;2023-05-18T14:02:38;19.10;99.90
6822;DHT22;3449;48.728;8.968;2023-05-18T14:05:06;19.80;99.90
6822;DHT22;3449;48.728;8.968;2023-05-18T14:07:34;19.90;99.90
6822;DHT22;3449;48.728;8.968;2023-05-18T14:10:02;19.40;99.90
6822;DHT22;3449;48.728;8.968;2023-05-18T14:12:30;19.20;99.90
6822;DHT22;3449;48.728;8.968;2023-05-18T14:14:57;18.80;99.90
6822;DHT22;3449;48.728;8.968;2023-05-18T14:17:24;18.50;99.90
6822;DHT22;3449;48.728;8.968;2023-05-18T14:19:55;18.30;99.90
6822;DHT22;3449;48.728;8.968;2023-05-18T14:22:22;18.20;99.90
6822;DHT22;3449;48.728;8.968;2023-05-18T14:24:50;18.40;99.90
6822;DHT22;3449;48.728;8.968;2023-05-18T14:27:17;19.10;99.90
6822;DHT22;3449;48.728;8.968;2023-05-18T14:29:45;19.50;99.90
6822;DHT22;3449;48.728;8.968;2023-05-18T14:32:11;19.30;99.90
6822;DHT22;3449;48.728;8.968;2023-05-18T14:34:38;18.40;99.90
6822;DHT22;3449;48.728;8.968;2023-05-18T14:37:06;18.00;99.90
6822;DHT22;3449;48.728;8.968;2023-05-18T14:39:34;17.70;99.90
6822;DHT22;3449;48.728;8.968;2023-05-18T14:42:00;17.40;99.90
6822;DHT22;3449;48.728;8.968;2023-05-18T14:44:27;17.40;99.90
6822;DHT22;3449;48.728;8.968;2023-05-18T14:46:54;17.10;99.90
6822;DHT22;3449;48.728;8.968;2023-05-18T14:49:22;17.00;99.90
6822;DHT22;3449;48.728;8.968;2023-05-18T14:51:48;17.40;99.90
6822;DHT22;3449;48.728;8.968;2023-05-18T14:54:17;18.20;99.90
6822;DHT22;3449;48.728;8.968;2023-05-18T14:56:44;18.90;99.90
6822;DHT22;3449;48.728;8.968;2023-05-18T14:59:11;19.50;99.90
6822;DHT22;3449;48.728;8.968;2023-05-18T15:01:38;19.40;99.90
6822;DHT22;3449;48.728;8.968;2023-05-18T15:04:05;19.40;99.90
6822;DHT22;3449;48.728;8.968;2023-05-18T15:06:32;18.80;99.90
6822;DHT22;3449;48.728;8.968;2023-05-18T15:08:59;18.50;99.90
6822;DHT22;3449;48.728;8.968;2023-05-18T15:11:28;18.40;99.90
6822;DHT22;3449;48.728;8.968;2023-05-18T15:13:54;18.00;99.90
6822;DHT22;3449;48.728;8.968;2023-05-18T15:16:21;17.80;99.90
6822;DHT22;3449;48.728;8.968;2023-05-18T15:18:48;17.70;99.90
6822;DHT22;3449;48.728;8.968;2023-05-18T15:21:15;18.00;99.90
6822;DHT22;3449;48.728;8.968;2023-05-18T15:23:57;18.20;99.90
6822;DHT22;3449;48.728;8.968;2023-05-18T15:26:24;18.00;99.90
6822;DHT22;3449;48.728;8.968;2023-05-18T15:28:53;17.90;99.90
6822;DHT22;3449;48.728;8.968;2023-05-18T15:31:21;17.60;99.90
6822;DHT22;3449;48.728;8.968;2023-05-18T15:33:47;17.50;99.90
6822;DHT22;3449;48.728;8.968;2023-05-18T15:36:14;17.20;99.90
6822;DHT22;3449;48.728;8.968;2023-05-18T15:38:41;17.00;99.90
6822;DHT22;3449;48.728;8.968;2023-05-18T15:41:08;17.10;99.90
6822;DHT22;3449;48.728;8.968;2023-05-18T15:43:35;17.10;99.90
6822;DHT22;3449;48.728;8.968;2023-05-18T15:46:05;17.00;99.90
6822;DHT22;3449;48.728;8.968;2023-05-18T15:48:31;17.10;99.90
6822;DHT22;3449;48.728;8.968;2023-05-18T15:50:58;16.90;99.90
6822;DHT22;3449;48.728;8.968;2023-05-18T15:53:25;16.70;99.90
6822;DHT22;3449;48.728;8.968;2023-05-18T15:55:52;16.60;99.90
6822;DHT22;3449;48.728;8.968;2023-05-18T15:58:20;16.50;99.90
6822;DHT22;3449;48.728;8.968;2023-05-18T16:00:47;16.40;99.90
6822;DHT22;3449;48.728;8.968;2023-05-18T16:03:15;16.20;99.90
6822;DHT22;3449;48.728;8.968;2023-05-18T16:05:43;16.20;99.90
6822;DHT22;3449;48.728;8.968;2023-05-18T16:08:10;16.10;99.90
6822;DHT22;3449;48.728;8.968;2023-05-18T16:10:37;16.10;99.90
6822;DHT22;3449;48.728;8.968;2023-05-18T16:13:04;16.10;99.90
6822;DHT22;3449;48.728;8.968;2023-05-18T16:15:34;16.10;99.90
6822;DHT22;3449;48.728;8.968;2023-05-18T16:18:01;16.10;99.90
6822;DHT22;3449;48.728;8.968;2023-05-18T16:20:29;16.10;99.90